Time;durP1;ratioP1;P1;durP2;ratioP2;P2;SDS_P1;SDS_P2;PMS_P1;PMS_P2;Temp;Humidity;BMP_temperature;BMP_pressure;BME280_temperature;BME280_humidity;BME280_pressure;Samples;Min_cycle;Max_cycle;Signal;HPM_P1;HPM_P2
2022/07/17 00:00:58;;;;;;;3.67;1.35;;;11.20;99.90;;;;;;5087394;28;19922;-63
2022/07/17 00:03:23;;;;;;;;;;;11.10;99.90;;;;;;5100406;28;20047;-62
2022/07/17 00:05:49;;;;;;;5.18;1.13;;;11.10;99.90;;;;;;5094342;28;20398;-62
2022/07/17 00:08:15;;;;;;;;;;;11.10;99.90;;;;;;5103120;28;20048;-63
2022/07/17 00:10:42;;;;;;;3.38;0.90;;;11.10;99.90;;;;;;5084068;28;19916;-63
2022/07/17 00:13:08;;;;;;;4.97;1.30;;;11.00;99.90;;;;;;5081441;28;20083;-64
2022/07/17 00:15:34;;;;;;;3.65;1.20;;;11.00;99.90;;;;;;5099567;28;20055;-64
2022/07/17 00:18:00;;;;;;;;;;;10.90;99.90;;;;;;5094642;28;20036;-62
2022/07/17 00:20:27;;;;;;;5.55;1.08;;;10.90;99.90;;;;;;5074394;28;19920;-63
2022/07/17 00:22:54;;;;;;;6.28;1.30;;;10.90;99.90;;;;;;5089004;28;20129;-63
2022/07/17 00:25:20;;;;;;;4.55;0.93;;;10.90;99.90;;;;;;5084537;28;20663;-62
2022/07/17 00:27:46;;;;;;;4.65;1.42;;;10.90;99.90;;;;;;5088846;28;20044;-63
2022/07/17 00:30:12;;;;;;;;;;;10.90;99.90;;;;;;5080504;28;20075;-62
2022/07/17 00:32:38;;;;;;;4.57;1.20;;;10.80;99.90;;;;;;5067886;28;20003;-63
2022/07/17 00:35:04;;;;;;;;;;;10.80;99.90;;;;;;5079226;28;20506;-62
2022/07/17 00:37:29;;;;;;;3.33;1.15;;;10.70;99.90;;;;;;5070588;28;19917;-62
2022/07/17 00:39:55;;;;;;;;;;;10.70;99.90;;;;;;5076919;28;20032;-62
2022/07/17 00:42:20;;;;;;;3.20;0.95;;;10.70;99.90;;;;;;5088799;28;20003;-62
2022/07/17 00:44:46;;;;;;;;;;;10.60;99.90;;;;;;5082419;28;20488;-62
2022/07/17 00:47:18;;;;;;;2.92;1.00;;;10.50;99.90;;;;;;5068654;28;19921;-61
2022/07/17 00:49:44;;;;;;;7.38;1.02;;;10.50;99.90;;;;;;5073885;28;20036;-63
2022/07/17 00:52:11;;;;;;;4.78;1.27;;;10.50;99.90;;;;;;5088146;28;20051;-63
2022/07/17 00:54:41;;;;;;;4.32;1.23;;;10.50;99.90;;;;;;5084500;28;20082;-63
2022/07/17 00:57:10;;;;;;;7.00;1.48;;;10.50;99.90;;;;;;5067461;28;20059;-62
2022/07/17 00:59:36;;;;;;;7.50;1.10;;;10.50;99.90;;;;;;5068664;28;20044;-62
2022/07/17 01:02:05;;;;;;;;;;;10.50;99.90;;;;;;5076976;28;20097;-62
2022/07/17 01:04:31;;;;;;;2.55;1.30;;;10.40;99.90;;;;;;5076720;28;19919;-63
2022/07/17 01:06:59;;;;;;;4.97;1.10;;;10.40;99.90;;;;;;5074453;28;20459;-63
2022/07/17 01:09:24;;;;;;;3.50;1.00;;;10.40;99.90;;;;;;5068261;28;20068;-62
2022/07/17 01:11:50;;;;;;;;;;;10.40;99.90;;;;;;5088349;28;20420;-64
2022/07/17 01:14:16;;;;;;;2.83;1.20;;;10.40;99.90;;;;;;5088072;28;20431;-62
2022/07/17 01:16:43;;;;;;;4.45;1.50;;;10.30;99.90;;;;;;5086610;28;20113;-63
2022/07/17 01:19:10;;;;;;;4.38;1.02;;;10.20;99.90;;;;;;5080521;28;20114;-62
2022/07/17 01:21:44;;;;;;;3.75;1.00;;;10.30;99.90;;;;;;5078747;28;20119;-63
2022/07/17 01:24:10;;;;;;;5.03;1.48;;;10.10;99.90;;;;;;5081677;28;20038;-62
2022/07/17 01:26:35;;;;;;;;;;;10.10;99.90;;;;;;5069378;28;20119;-62
2022/07/17 01:29:01;;;;;;;3.35;1.35;;;10.10;99.90;;;;;;5066385;28;20575;-64
2022/07/17 01:31:27;;;;;;;;;;;10.10;99.90;;;;;;5081926;28;20033;-65
2022/07/17 01:33:52;;;;;;;3.83;1.35;;;10.10;99.90;;;;;;5081024;28;19917;-62
2022/07/17 01:36:23;;;;;;;;;;;10.00;99.90;;;;;;5079636;28;20503;-63
2022/07/17 01:38:48;;;;;;;3.45;1.30;;;10.00;99.90;;;;;;5087820;28;19916;-63
2022/07/17 01:41:14;;;;;;;;;;;10.00;99.90;;;;;;5077334;28;20381;-63
2022/07/17 01:43:39;;;;;;;6.15;2.13;;;10.00;99.90;;;;;;5068055;28;19927;-63
2022/07/17 01:46:05;;;;;;;;;;;10.00;99.90;;;;;;5076801;28;20044;-63
2022/07/17 01:48:31;;;;;;;6.65;1.40;;;10.00;99.90;;;;;;5087732;28;19976;-62
2022/07/17 01:50:56;;;;;;;;;;;10.00;99.90;;;;;;5080822;28;20425;-61
2022/07/17 01:53:22;;;;;;;5.53;1.08;;;10.00;99.90;;;;;;5067938;28;19920;-63
2022/07/17 01:55:47;;;;;;;;;;;9.90;99.90;;;;;;5072708;28;20054;-63
2022/07/17 01:58:14;;;;;;;7.30;1.30;;;9.90;99.90;;;;;;5087210;28;19922;-61
2022/07/17 02:00:39;;;;;;;7.68;1.90;;;9.90;99.90;;;;;;5075745;28;20039;-63
2022/07/17 02:03:05;;;;;;;;;;;9.90;99.90;;;;;;5086398;28;20040;-63
2022/07/17 02:05:31;;;;;;;4.72;1.67;;;9.90;99.90;;;;;;5076493;28;19989;-63
2022/07/17 02:07:57;;;;;;;;;;;9.90;99.90;;;;;;5086315;28;20408;-63
2022/07/17 02:10:23;;;;;;;10.20;1.45;;;9.90;99.90;;;;;;5082055;28;20670;-62
2022/07/17 02:12:49;;;;;;;3.60;1.13;;;9.90;99.90;;;;;;5067119;28;20043;-63
2022/07/17 02:15:14;;;;;;;;;;;9.90;99.90;;;;;;5066969;28;20115;-63
2022/07/17 02:17:41;;;;;;;2.80;1.42;;;9.80;99.90;;;;;;5083348;28;19965;-63
2022/07/17 02:20:07;;;;;;;6.20;1.40;;;9.80;99.90;;;;;;5090904;28;20529;-63
2022/07/17 02:22:33;;;;;;;7.75;1.00;;;9.80;99.90;;;;;;5091362;28;20536;-62
2022/07/17 02:24:59;;;;;;;;;;;9.80;99.90;;;;;;5093759;28;20058;-63
2022/07/17 02:27:24;;;;;;;4.95;1.50;;;9.80;99.90;;;;;;5072273;28;19943;-63
2022/07/17 02:29:50;;;;;;;;;;;9.70;99.90;;;;;;5098655;28;20077;-62
2022/07/17 02:32:15;;;;;;;6.60;1.30;;;9.70;99.90;;;;;;5092098;28;19968;-62
2022/07/17 02:34:41;;;;;;;;;;;9.70;99.90;;;;;;5093683;28;20059;-62
2022/07/17 02:37:07;;;;;;;6.03;1.58;;;9.70;99.90;;;;;;5073096;28;20411;-62
2022/07/17 02:39:32;;;;;;;;;;;9.60;99.90;;;;;;5075034;28;20079;-61
2022/07/17 02:41:58;;;;;;;2.30;1.10;;;9.60;99.90;;;;;;5066302;28;19916;-63
2022/07/17 02:44:23;;;;;;;;;;;9.60;99.90;;;;;;5066548;28;20040;-61
2022/07/17 02:46:48;;;;;;;4.60;1.40;;;9.60;99.90;;;;;;5086611;28;19930;-62
2022/07/17 02:49:14;;;;;;;;;;;9.60;99.90;;;;;;5091175;28;20395;-62
2022/07/17 02:51:40;;;;;;;4.00;1.45;;;9.60;99.90;;;;;;5081154;28;19921;-63
2022/07/17 02:54:06;;;;;;;;;;;9.60;99.90;;;;;;5065087;28;20097;-62
2022/07/17 02:56:31;;;;;;;3.00;0.98;;;9.50;99.90;;;;;;5064630;28;19916;-63
2022/07/17 02:58:57;;;;;;;;;;;9.50;99.90;;;;;;5066352;28;20079;-62
2022/07/17 03:01:22;;;;;;;2.38;0.98;;;9.50;99.90;;;;;;5065414;28;20342;-62
2022/07/17 03:03:48;;;;;;;;;;;9.60;99.90;;;;;;5095265;28;20032;-61
2022/07/17 03:06:14;;;;;;;4.25;1.15;;;9.60;99.90;;;;;;5083010;28;19925;-63
2022/07/17 03:08:39;;;;;;;;;;;9.60;99.90;;;;;;5084889;28;20048;-62
2022/07/17 03:11:05;;;;;;;4.55;1.05;;;9.50;99.90;;;;;;5086014;28;19916;-63
2022/07/17 03:13:30;;;;;;;;;;;9.50;99.90;;;;;;5069017;28;20043;-56
2022/07/17 03:15:56;;;;;;;5.78;1.33;;;9.50;99.90;;;;;;5065792;28;19928;-62
2022/07/17 03:18:21;;;;;;;;;;;9.40;99.90;;;;;;5081510;28;20867;-62
2022/07/17 03:20:47;;;;;;;6.95;1.25;;;9.40;99.90;;;;;;5086079;28;19969;-62
2022/07/17 03:23:12;;;;;;;;;;;9.40;99.90;;;;;;5074209;28;20098;-62
2022/07/17 03:25:38;;;;;;;4.65;1.05;;;9.40;99.90;;;;;;5076112;28;19927;-62
2022/07/17 03:28:03;;;;;;;;;;;9.40;99.90;;;;;;5065884;28;20120;-64
2022/07/17 03:30:29;;;;;;;6.90;1.20;;;9.30;99.90;;;;;;5066978;28;19935;-62
2022/07/17 03:32:54;;;;;;;;;;;9.30;99.90;;;;;;5073689;28;20059;-62
2022/07/17 03:35:20;;;;;;;8.10;1.67;;;9.30;99.90;;;;;;5074455;28;19931;-62
2022/07/17 03:37:46;;;;;;;;;;;9.30;99.90;;;;;;5078393;28;20432;-64
2022/07/17 03:40:11;;;;;;;3.08;1.10;;;9.30;99.90;;;;;;5086249;28;19955;-62
2022/07/17 03:42:37;;;;;;;;;;;9.30;99.90;;;;;;5080712;28;20048;-62
2022/07/17 03:45:03;;;;;;;4.35;1.27;;;9.30;99.90;;;;;;5065711;28;19923;-63
2022/07/17 03:47:28;;;;;;;;;;;9.30;99.90;;;;;;5069215;28;20047;-63
2022/07/17 03:49:54;;;;;;;6.57;1.10;;;9.30;99.90;;;;;;5084972;28;20019;-62
2022/07/17 03:52:20;;;;;;;;;;;9.40;99.90;;;;;;5084968;28;20040;-61
2022/07/17 03:54:45;;;;;;;6.60;1.45;;;9.40;99.90;;;;;;5069192;28;20023;-63
2022/07/17 03:57:11;;;;;;;;;;;9.50;99.90;;;;;;5068900;28;20071;-63
2022/07/17 03:59:36;;;;;;;2.20;1.00;;;9.60;99.90;;;;;;5088420;28;19916;-62
2022/07/17 04:02:02;;;;;;;;;;;9.60;99.90;;;;;;5088326;28;20096;-63
2022/07/17 04:04:27;;;;;;;4.30;1.30;;;9.60;99.90;;;;;;5071607;28;19916;-60
2022/07/17 04:06:53;;;;;;;;;;;9.60;99.90;;;;;;5068675;28;20773;-63
2022/07/17 04:09:19;;;;;;;6.50;1.45;;;9.60;99.90;;;;;;5066781;28;19916;-63
2022/07/17 04:11:44;;;;;;;;;;;9.70;99.90;;;;;;5088186;28;20450;-63
2022/07/17 04:14:10;;;;;;;6.78;1.38;;;9.80;99.90;;;;;;5075405;28;20004;-62
2022/07/17 04:16:35;;;;;;;;;;;9.90;99.90;;;;;;5070115;28;20416;-62
2022/07/17 04:19:01;;;;;;;6.07;1.55;;;10.00;99.90;;;;;;5074525;28;19920;-61
2022/07/17 04:21:26;;;;;;;;;;;10.00;99.90;;;;;;5069212;28;20040;-62
2022/07/17 04:23:52;;;;;;;2.90;1.17;;;10.00;99.90;;;;;;5071595;28;19942;-63
2022/07/17 04:26:17;;;;;;;;;;;10.10;99.90;;;;;;5069314;28;20044;-62
2022/07/17 04:28:43;;;;;;;3.13;1.10;;;10.10;99.90;;;;;;5075935;28;19915;-63
2022/07/17 04:31:08;;;;;;;;;;;10.30;99.90;;;;;;5088993;28;20036;-63
2022/07/17 04:33:35;;;;;;;4.05;1.20;;;10.60;99.90;;;;;;5083085;28;20342;-63
2022/07/17 04:36:00;;;;;;;4.18;1.00;;;10.80;99.90;;;;;;5068706;28;20052;-61
2022/07/17 04:38:26;;;;;;;;;;;10.90;99.90;;;;;;5072655;28;20772;-62
2022/07/17 04:40:51;;;;;;;5.47;1.30;;;11.50;99.90;;;;;;5087691;28;20007;-61
2022/07/17 04:43:17;;;;;;;;;;;12.60;99.90;;;;;;5085339;28;20097;-63
2022/07/17 04:45:42;;;;;;;6.13;1.50;;;12.80;98.50;;;;;;5076995;28;20375;-63
2022/07/17 04:48:08;;;;;;;;;;;12.40;99.20;;;;;;5082797;28;20504;-64
2022/07/17 04:50:33;;;;;;;5.05;1.20;;;12.00;99.90;;;;;;5068626;28;19917;-62
2022/07/17 04:53:00;;;;;;;;;;;11.80;99.90;;;;;;5068752;28;20047;-62
2022/07/17 04:55:26;;;;;;;6.70;1.00;;;11.60;99.90;;;;;;5087552;28;19920;-59
2022/07/17 04:57:51;;;;;;;;;;;11.40;99.90;;;;;;5089132;28;20063;-64
2022/07/17 05:00:17;;;;;;;5.30;1.15;;;11.20;99.90;;;;;;5070821;28;20114;-63
2022/07/17 05:02:42;;;;;;;;;;;11.20;99.90;;;;;;5069153;28;20044;-63
2022/07/17 05:05:08;;;;;;;2.75;1.10;;;11.20;99.90;;;;;;5083211;28;20493;-62
2022/07/17 05:07:34;;;;;;;;;;;11.30;99.90;;;;;;5089305;28;20044;-63
2022/07/17 05:09:59;;;;;;;5.07;1.08;;;11.40;99.90;;;;;;5075203;28;19917;-63
2022/07/17 05:12:25;;;;;;;;;;;11.50;99.90;;;;;;5068601;28;20737;-63
2022/07/17 05:14:50;;;;;;;4.57;1.33;;;11.70;99.90;;;;;;5069000;28;19920;-63
2022/07/17 05:17:16;;;;;;;;;;;11.80;99.90;;;;;;5076030;28;20032;-61
2022/07/17 05:19:42;;;;;;;1.50;0.90;;;11.90;99.90;;;;;;5077947;28;19916;-62
2022/07/17 05:22:07;;;;;;;;;;;12.00;99.90;;;;;;5073752;28;20037;-64
2022/07/17 05:24:33;;;;;;;6.95;1.17;;;12.10;99.90;;;;;;5075727;28;19982;-63
2022/07/17 05:26:59;;;;;;;;;;;12.30;99.90;;;;;;5076466;28;20059;-63
2022/07/17 05:29:24;;;;;;;7.90;1.48;;;12.40;99.90;;;;;;5066995;28;20435;-63
2022/07/17 05:31:50;;;;;;;;;;;12.50;99.90;;;;;;5067618;28;20691;-60
2022/07/17 05:34:15;;;;;;;4.57;1.33;;;12.40;99.90;;;;;;5080991;28;19916;-63
2022/07/17 05:36:41;;;;;;;;;;;12.50;99.90;;;;;;5067569;28;20488;-61
2022/07/17 05:39:08;;;;;;;2.90;0.90;;;12.60;99.90;;;;;;5068202;28;19920;-62
2022/07/17 05:41:34;;;;;;;6.03;1.35;;;12.70;99.90;;;;;;5086833;28;20060;-62
2022/07/17 05:44:00;;;;;;;3.30;1.23;;;12.80;99.90;;;;;;5083259;28;20043;-63
2022/07/17 05:46:25;;;;;;;;;;;12.80;99.90;;;;;;5075467;28;20048;-62
2022/07/17 05:48:51;;;;;;;3.80;1.02;;;12.90;99.90;;;;;;5086910;28;20295;-64
2022/07/17 05:51:16;;;;;;;;;;;13.10;99.90;;;;;;5068746;28;20047;-64
2022/07/17 05:53:42;;;;;;;4.50;1.20;;;13.20;99.90;;;;;;5065262;28;20042;-63
2022/07/17 05:56:07;;;;;;;;;;;13.30;99.90;;;;;;5082264;28;20043;-63
2022/07/17 05:58:33;;;;;;;5.55;1.20;;;13.30;99.90;;;;;;5071595;28;19916;-61
2022/07/17 06:00:59;;;;;;;;;;;13.50;99.90;;;;;;5070260;28;20465;-61
2022/07/17 06:03:24;;;;;;;3.17;1.10;;;13.60;99.90;;;;;;5074356;28;19931;-61
2022/07/17 06:05:50;;;;;;;;;;;13.70;99.90;;;;;;5082649;28;20043;-62
2022/07/17 06:08:16;;;;;;;3.28;0.82;;;13.70;99.90;;;;;;5083463;28;19939;-64
2022/07/17 06:10:41;;;;;;;;;;;13.80;99.90;;;;;;5072393;28;20082;-62
2022/07/17 06:13:07;;;;;;;3.05;1.27;;;13.80;99.90;;;;;;5066070;28;19917;-63
2022/07/17 06:15:32;;;;;;;;;;;13.90;99.90;;;;;;5067173;28;20032;-64
2022/07/17 06:18:02;;;;;;;7.80;1.30;;;14.00;99.90;;;;;;5069761;28;19924;-64
2022/07/17 06:20:28;;;;;;;5.93;1.30;;;14.30;99.90;;;;;;5082758;28;20132;-64
2022/07/17 06:22:54;;;;;;;4.30;0.95;;;14.50;99.90;;;;;;5089865;28;20032;-64
2022/07/17 06:25:20;;;;;;;;;;;14.70;99.90;;;;;;5088045;28;20101;-63
2022/07/17 06:27:45;;;;;;;3.80;1.35;;;14.80;99.90;;;;;;5095400;28;19923;-64
2022/07/17 06:30:12;;;;;;;;;;;15.00;99.90;;;;;;5102491;28;20085;-63
2022/07/17 06:32:37;;;;;;;5.97;1.20;;;15.40;99.00;;;;;;5093010;28;20350;-63
2022/07/17 06:35:03;;;;;;;;;;;15.90;98.30;;;;;;5089058;28;20315;-62
2022/07/17 06:37:29;;;;;;;3.70;0.93;;;15.90;97.90;;;;;;5093182;28;20362;-64
2022/07/17 06:39:55;;;;;;;;;;;15.90;96.90;;;;;;5094559;28;20097;-62
2022/07/17 06:42:20;;;;;;;4.15;0.95;;;15.90;97.20;;;;;;5090698;28;19920;-64
2022/07/17 06:44:46;;;;;;;4.43;0.95;;;16.30;96.30;;;;;;5089036;28;20035;-63
2022/07/17 06:47:11;;;;;;;;;;;16.40;95.70;;;;;;5076766;28;20047;-63
2022/07/17 06:49:37;;;;;;;4.57;1.30;;;16.70;94.20;;;;;;5064510;28;20024;-64
2022/07/17 06:52:02;;;;;;;5.05;1.00;;;17.10;94.60;;;;;;5080606;28;20403;-63
2022/07/17 06:54:28;;;;;;;7.70;0.95;;;17.30;94.40;;;;;;5086222;28;20040;-65
2022/07/17 06:56:54;;;;;;;;;;;17.20;93.60;;;;;;5071765;28;20416;-63
2022/07/17 06:59:20;;;;;;;5.40;1.23;;;17.20;93.10;;;;;;5068251;28;19969;-63
2022/07/17 07:01:45;;;;;;;3.00;1.00;;;17.10;93.30;;;;;;5069615;28;20074;-63
2022/07/17 07:04:11;;;;;;;;;;;17.30;93.50;;;;;;5078819;28;20071;-63
2022/07/17 07:06:37;;;;;;;3.72;1.10;;;17.70;91.40;;;;;;5076487;28;20582;-60
2022/07/17 07:09:03;;;;;;;6.95;1.10;;;17.70;91.60;;;;;;5065372;28;20822;-62
2022/07/17 07:11:29;;;;;;;3.75;1.13;;;17.70;91.50;;;;;;5065244;28;20036;-63
2022/07/17 07:13:54;;;;;;;;;;;17.80;91.30;;;;;;5065778;28;20036;-62
2022/07/17 07:16:20;;;;;;;3.22;0.90;;;18.00;90.30;;;;;;5080711;28;19916;-63
2022/07/17 07:18:46;;;;;;;;;;;18.30;90.30;;;;;;5066480;28;20041;-63
2022/07/17 07:21:12;;;;;;;4.78;1.00;;;18.20;90.70;;;;;;5069670;28;20003;-61
2022/07/17 07:23:37;;;;;;;7.60;1.00;;;18.70;89.20;;;;;;5081363;28;20480;-62
2022/07/17 07:26:03;;;;;;;6.38;1.17;;;18.90;88.80;;;;;;5074890;28;20058;-61
2022/07/17 07:28:28;;;;;;;11.60;1.00;;;19.20;87.50;;;;;;5079679;28;20039;-62
2022/07/17 07:30:54;;;;;;;4.07;0.80;;;19.10;85.10;;;;;;5087658;28;20040;-63
2022/07/17 07:33:20;;;;;;;3.53;0.77;;;19.00;86.00;;;;;;5069443;28;20565;-62
2022/07/17 07:35:45;;;;;;;5.18;0.90;;;18.80;87.60;;;;;;5069999;28;20041;-61
2022/07/17 07:38:11;;;;;;;4.00;0.90;;;18.60;88.00;;;;;;5069271;28;20412;-62
2022/07/17 07:40:37;;;;;;;4.07;0.85;;;18.60;88.80;;;;;;5070211;28;20048;-64
2022/07/17 07:43:02;;;;;;;;;;;18.70;90.10;;;;;;5087194;28;20040;-62
2022/07/17 07:45:28;;;;;;;4.73;0.90;;;19.00;86.20;;;;;;5073236;28;19916;-61
2022/07/17 07:47:55;;;;;;;5.30;1.42;;;19.20;85.80;;;;;;5086377;28;20042;-62
2022/07/17 07:50:24;;;;;;;6.75;1.20;;;19.50;86.50;;;;;;5088344;28;20040;-61
2022/07/17 07:52:50;;;;;;;2.63;0.70;;;19.40;84.80;;;;;;5074897;28;20044;-62
2022/07/17 07:55:16;;;;;;;6.30;1.10;;;19.50;85.30;;;;;;5068887;28;20047;-63
2022/07/17 07:57:42;;;;;;;5.82;0.95;;;20.00;86.00;;;;;;5081530;28;20519;-62
2022/07/17 08:00:10;;;;;;;4.63;0.68;;;20.30;84.10;;;;;;5089936;28;20032;-63
2022/07/17 08:02:35;;;;;;;4.38;1.23;;;20.40;81.80;;;;;;5087333;28;20492;-62
2022/07/17 08:05:01;;;;;;;3.95;0.80;;;20.20;83.00;;;;;;5089819;28;20036;-61
2022/07/17 08:07:27;;;;;;;5.25;1.10;;;20.20;84.80;;;;;;5079278;28;20579;-62
2022/07/17 08:09:53;;;;;;;4.93;1.00;;;20.20;82.10;;;;;;5069124;28;20036;-64
2022/07/17 08:12:19;;;;;;;4.85;0.85;;;20.50;84.00;;;;;;5079541;28;20039;-64
2022/07/17 08:14:45;;;;;;;3.50;1.00;;;21.10;78.90;;;;;;5079300;28;20059;-63
2022/07/17 08:17:11;;;;;;;4.47;1.10;;;21.70;79.80;;;;;;5083738;28;20192;-63
2022/07/17 08:19:37;;;;;;;5.55;1.20;;;21.50;78.30;;;;;;5073997;28;20493;-63
2022/07/17 08:22:02;;;;;;;5.18;1.13;;;21.00;74.90;;;;;;5075755;28;20039;-62
2022/07/17 08:24:28;;;;;;;3.08;0.77;;;20.60;78.70;;;;;;5077615;28;20497;-63
2022/07/17 08:26:53;;;;;;;4.20;1.00;;;20.70;78.30;;;;;;5070395;28;20102;-63
2022/07/17 08:29:19;;;;;;;2.60;0.70;;;20.60;76.30;;;;;;5088918;28;20044;-62
2022/07/17 08:31:45;;;;;;;3.08;0.70;;;20.60;76.80;;;;;;5089186;28;20028;-63
2022/07/17 08:34:11;;;;;;;8.38;0.98;;;20.60;78.10;;;;;;5068515;28;20055;-63
2022/07/17 08:36:36;;;;;;;1.52;0.68;;;20.90;74.20;;;;;;5067862;28;20097;-64
2022/07/17 08:39:03;;;;;;;2.63;0.80;;;21.20;75.70;;;;;;5087176;28;20039;-62
2022/07/17 08:41:29;;;;;;;2.35;0.75;;;21.80;76.10;;;;;;5084622;28;20036;-63
2022/07/17 08:43:56;;;;;;;4.30;1.08;;;22.20;72.90;;;;;;5097047;28;20097;-63
2022/07/17 08:46:27;;;;;;;2.42;0.82;;;22.50;72.20;;;;;;5094231;28;20047;-62
2022/07/17 08:48:58;;;;;;;2.55;1.05;;;23.00;69.40;;;;;;5100434;27;20036;-63
2022/07/17 08:51:26;;;;;;;3.20;1.33;;;23.50;67.80;;;;;;5092677;28;20048;-62
2022/07/17 08:53:52;;;;;;;3.17;1.17;;;24.10;67.80;;;;;;5089607;28;20169;-62
2022/07/17 08:56:18;;;;;;;2.50;0.70;;;25.50;61.50;;;;;;5087592;28;20048;-64
2022/07/17 08:58:44;;;;;;;7.80;1.17;;;26.30;58.20;;;;;;5075907;28;20070;-63
2022/07/17 09:01:10;;;;;;;3.40;0.90;;;26.00;58.80;;;;;;5074459;28;20083;-63
2022/07/17 09:03:36;;;;;;;2.88;0.75;;;25.50;58.70;;;;;;5089297;28;20063;-63
2022/07/17 09:06:02;;;;;;;4.55;0.73;;;24.80;60.60;;;;;;5099540;28;20384;-63
2022/07/17 09:08:32;;;;;;;2.67;1.23;;;23.70;62.00;;;;;;5100362;28;20040;-63
2022/07/17 09:10:58;;;;;;;3.67;1.02;;;22.50;65.00;;;;;;5088769;28;20040;-62
2022/07/17 09:13:28;;;;;;;2.15;1.15;;;21.90;68.40;;;;;;5080359;28;20047;-61
2022/07/17 09:16:09;;;;;;;3.00;0.88;;;21.40;69.20;;;;;;5085451;28;20159;-63
2022/07/17 09:18:49;;;;;;;4.57;0.90;;;21.40;72.70;;;;;;5092089;28;20503;-62
2022/07/17 09:21:23;;;;;;;5.75;0.82;;;21.40;70.80;;;;;;5085448;28;20045;-63
2022/07/17 09:24:04;;;;;;;3.45;0.73;;;21.40;71.90;;;;;;5074657;28;20028;-63
2022/07/17 09:26:32;;;;;;;2.55;0.82;;;21.10;69.70;;;;;;5079052;28;20040;-64
2022/07/17 09:29:01;;;;;;;6.97;1.60;;;21.00;72.80;;;;;;5070424;28;20032;-62
2022/07/17 09:31:32;;;;;;;2.40;1.00;;;21.20;72.10;;;;;;5075691;28;20037;-62
2022/07/17 09:33:58;;;;;;;5.40;0.75;;;21.10;71.20;;;;;;5066769;28;20071;-62
2022/07/17 09:36:24;;;;;;;1.52;0.50;;;21.00;73.90;;;;;;5065874;28;20044;-62
2022/07/17 09:38:55;;;;;;;4.32;0.75;;;20.90;73.20;;;;;;5090623;28;20381;-62
2022/07/17 09:41:22;;;;;;;4.68;0.82;;;20.90;72.60;;;;;;5087487;28;20040;-62
2022/07/17 09:43:54;;;;;;;2.35;0.50;;;21.00;74.10;;;;;;5079723;28;20036;-63
2022/07/17 09:46:21;;;;;;;5.75;1.02;;;21.10;75.90;;;;;;5074976;28;20079;-63
2022/07/17 09:48:52;;;;;;;3.40;1.23;;;21.20;72.50;;;;;;5080852;28;20037;-63
2022/07/17 09:51:21;;;;;;;3.33;0.75;;;21.00;71.70;;;;;;5066432;28;20171;-63
2022/07/17 09:53:48;;;;;;;7.47;1.08;;;21.00;71.50;;;;;;5072316;28;20032;-63
2022/07/17 09:56:17;;;;;;;4.35;0.60;;;20.80;69.20;;;;;;5087582;28;21012;-63
2022/07/17 09:58:47;;;;;;;3.08;0.90;;;20.80;70.50;;;;;;5081190;28;20119;-62
2022/07/17 10:01:15;;;;;;;5.47;0.80;;;21.00;72.50;;;;;;5066771;28;20035;-63
2022/07/17 10:03:42;;;;;;;3.05;0.93;;;21.20;71.70;;;;;;5070255;28;20036;-63
2022/07/17 10:06:08;;;;;;;3.83;0.70;;;21.20;65.30;;;;;;5091574;28;20043;-63
2022/07/17 10:08:35;;;;;;;2.08;0.80;;;21.20;67.80;;;;;;5088719;28;20044;-61
2022/07/17 10:11:01;;;;;;;3.13;0.70;;;21.40;70.20;;;;;;5085692;28;20056;-62
2022/07/17 10:13:28;;;;;;;6.07;1.00;;;21.50;65.10;;;;;;5083049;28;20059;-63
2022/07/17 10:15:54;;;;;;;2.78;0.57;;;21.50;67.50;;;;;;5075138;28;20032;-63
2022/07/17 10:18:21;;;;;;;4.72;0.82;;;21.60;67.90;;;;;;5078428;28;20055;-62
2022/07/17 10:20:47;;;;;;;2.00;0.77;;;21.60;59.80;;;;;;5077311;28;20028;-63
2022/07/17 10:23:14;;;;;;;3.50;0.82;;;21.70;61.10;;;;;;5073590;28;20043;-63
2022/07/17 10:25:40;;;;;;;1.85;0.80;;;21.80;62.00;;;;;;5076608;28;20082;-62
2022/07/17 10:28:07;;;;;;;2.05;0.55;;;21.80;59.50;;;;;;5076190;28;20068;-63
2022/07/17 10:30:33;;;;;;;2.85;0.80;;;21.80;60.40;;;;;;5075682;28;20127;-63
2022/07/17 10:33:04;;;;;;;1.13;0.40;;;21.80;56.00;;;;;;5073951;28;20772;-61
2022/07/17 10:35:43;;;;;;;4.05;1.10;;;21.80;60.70;;;;;;5074870;28;20469;-63
2022/07/17 10:38:14;;;;;;;3.05;0.60;;;21.70;63.20;;;;;;5074425;28;20051;-63
2022/07/17 10:40:41;;;;;;;1.10;0.68;;;21.90;61.70;;;;;;5077616;28;20173;-62
2022/07/17 10:43:08;;;;;;;4.07;1.08;;;22.20;63.70;;;;;;5077790;28;20040;-63
2022/07/17 10:45:35;;;;;;;3.90;1.02;;;21.90;58.00;;;;;;5072071;28;20084;-62
2022/07/17 10:48:00;;;;;;;1.38;0.57;;;21.80;59.90;;;;;;5077564;28;20458;-63
2022/07/17 10:50:35;;;;;;;2.03;0.60;;;22.00;61.30;;;;;;5075348;28;20037;-63
2022/07/17 10:53:12;;;;;;;2.92;0.85;;;22.30;63.20;;;;;;5079222;28;20036;-64
2022/07/17 10:55:44;;;;;;;1.83;0.70;;;22.40;57.90;;;;;;5079526;28;20035;-64
2022/07/17 10:58:16;;;;;;;2.60;0.90;;;22.30;68.30;;;;;;5077584;28;20032;-63
2022/07/17 11:00:41;;;;;;;2.28;0.60;;;22.40;68.60;;;;;;5075965;28;20058;-63
2022/07/17 11:03:12;;;;;;;2.08;0.70;;;22.40;62.30;;;;;;5081102;28;20107;-62
2022/07/17 11:05:38;;;;;;;2.78;0.90;;;22.30;64.70;;;;;;5080213;28;20043;-63
2022/07/17 11:08:09;;;;;;;6.15;0.90;;;22.40;67.40;;;;;;5088642;28;20036;-63
2022/07/17 11:10:36;;;;;;;4.00;1.10;;;22.60;64.70;;;;;;5084673;28;20036;-63
2022/07/17 11:13:28;;;;;;;6.68;1.05;;;22.50;66.50;;;;;;5082623;28;20589;-63
2022/07/17 11:15:54;;;;;;;5.65;1.42;;;22.50;68.90;;;;;;5071923;28;20055;-63
2022/07/17 11:18:21;;;;;;;1.67;0.70;;;22.30;66.50;;;;;;5082552;28;20420;-62
2022/07/17 11:20:52;;;;;;;5.05;1.23;;;22.40;70.60;;;;;;5081377;28;20036;-62
2022/07/17 11:23:18;;;;;;;1.75;0.75;;;22.30;68.70;;;;;;5075741;28;20037;-62
2022/07/17 11:26:00;;;;;;;2.47;0.73;;;22.10;66.90;;;;;;5083420;28;20039;-62
2022/07/17 11:28:47;;;;;;;1.95;0.70;;;22.10;68.10;;;;;;5074806;28;20119;-62
2022/07/17 11:31:30;;;;;;;7.65;1.52;;;22.20;71.20;;;;;;5079607;28;20063;-63
2022/07/17 11:34:01;;;;;;;6.25;1.02;;;22.20;67.60;;;;;;5083182;28;20130;-63
2022/07/17 11:36:32;;;;;;;5.45;1.15;;;22.30;69.70;;;;;;5077732;28;20055;-63
2022/07/17 11:39:04;;;;;;;3.05;0.85;;;22.50;70.60;;;;;;5080239;28;20044;-63
2022/07/17 11:41:32;;;;;;;3.30;0.90;;;22.60;68.70;;;;;;5080074;28;20039;-62
2022/07/17 11:43:58;;;;;;;3.10;1.05;;;22.50;67.70;;;;;;5074935;28;20036;-62
2022/07/17 11:46:24;;;;;;;1.85;0.80;;;22.30;66.80;;;;;;5075162;28;20110;-63
2022/07/17 11:48:49;;;;;;;4.18;0.77;;;22.50;69.40;;;;;;5081299;28;20040;-64
2022/07/17 11:51:16;;;;;;;5.03;1.50;;;22.60;66.70;;;;;;5086708;28;20032;-62
2022/07/17 11:53:42;;;;;;;6.70;0.93;;;22.50;67.70;;;;;;5093640;28;20102;-63
2022/07/17 11:56:08;;;;;;;3.53;0.90;;;22.70;69.40;;;;;;5092873;28;20412;-66
2022/07/17 11:58:45;;;;;;;1.77;0.60;;;22.60;65.00;;;;;;5092766;28;20047;-64
2022/07/17 12:01:11;;;;;;;2.25;0.70;;;22.80;66.70;;;;;;5096543;28;20039;-63
2022/07/17 12:03:36;;;;;;;1.67;0.80;;;22.90;66.10;;;;;;5086880;28;20109;-61
2022/07/17 12:06:02;;;;;;;3.25;1.10;;;22.70;62.90;;;;;;5078692;28;20510;-64
2022/07/17 12:08:28;;;;;;;7.05;0.95;;;22.80;63.20;;;;;;5065223;28;20036;-62
2022/07/17 12:11:01;;;;;;;1.80;0.55;;;22.80;66.30;;;;;;5090977;28;20031;-63
2022/07/17 12:13:47;;;;;;;7.03;0.90;;;22.80;65.50;;;;;;5081035;28;20446;-61
2022/07/17 12:16:44;;;;;;;3.38;0.75;;;22.90;65.30;;;;;;5094087;28;20721;-63
2022/07/17 12:19:14;;;;;;;4.30;0.60;;;22.80;61.80;;;;;;5064908;28;20045;-62
2022/07/17 12:21:54;;;;;;;1.83;0.60;;;22.70;63.20;;;;;;5078197;28;20059;-63
2022/07/17 12:24:26;;;;;;;4.22;0.80;;;22.70;60.70;;;;;;5083230;28;20075;-63
2022/07/17 12:26:52;;;;;;;3.53;0.85;;;22.60;63.20;;;;;;5068610;28;20683;-63
2022/07/17 12:29:18;;;;;;;4.20;0.85;;;22.70;64.60;;;;;;5074822;28;20139;-62
2022/07/17 12:31:44;;;;;;;2.25;0.73;;;22.70;62.20;;;;;;5079403;28;20032;-63
2022/07/17 12:34:10;;;;;;;3.92;0.77;;;22.80;60.80;;;;;;5068634;28;20052;-63
2022/07/17 12:36:35;;;;;;;3.00;0.90;;;22.80;64.60;;;;;;5090390;28;20500;-63
2022/07/17 12:39:01;;;;;;;4.15;0.90;;;22.90;59.50;;;;;;5093935;28;20420;-63
2022/07/17 12:41:27;;;;;;;3.17;1.00;;;22.90;60.10;;;;;;5067168;28;20097;-63
2022/07/17 12:43:52;;;;;;;2.92;0.75;;;23.10;62.10;;;;;;5068124;28;20047;-62
2022/07/17 12:46:18;;;;;;;3.50;0.60;;;23.10;61.90;;;;;;5078819;28;20574;-63
2022/07/17 12:48:45;;;;;;;2.35;0.80;;;23.40;62.00;;;;;;5068821;28;20488;-63
2022/07/17 12:51:12;;;;;;;3.03;0.90;;;23.40;60.60;;;;;;5068396;28;20047;-62
2022/07/17 12:53:40;;;;;;;9.52;1.00;;;23.30;59.90;;;;;;5087659;28;20163;-63
2022/07/17 12:56:07;;;;;;;5.22;1.02;;;23.20;62.10;;;;;;5086972;28;20119;-63
2022/07/17 12:58:33;;;;;;;1.52;0.68;;;23.30;61.30;;;;;;5068412;28;20040;-63
2022/07/17 13:00:59;;;;;;;5.03;1.08;;;23.40;61.80;;;;;;5066225;28;20047;-63
2022/07/17 13:03:25;;;;;;;3.35;1.08;;;23.30;61.20;;;;;;5086091;28;20640;-63
2022/07/17 13:05:51;;;;;;;5.07;1.48;;;23.20;60.00;;;;;;5087533;28;20048;-63